< < Back
Terminal Aerodrome Forecast


Current Version              Previous Versions:   1  2  3  4  5  6  7  8  9  

Terminal Aerodrome Forecast

192
FTUS42 KILM 301613 AAB
TAFFLO
TAF AMD
KFLO 301613Z 3016/3112 24011G18KT P6SM SCT015 BKN040
      TEMPO 3017/3021 BKN015
     FM302100 28011KT P6SM SCT020 SCT050
     FM302300 VRB04KT P6SM SKC=

Latest METAR

101
SAUS70 KWBC 302300 RRD
MTRFLO
METAR KFLO 302253Z 27008KT 10SM CLR 19/08 A3000 RMK AO2 SLP156
T01890078


USA.gov is the U.S. government's official web portal to all federal, state and local government web resources and services.